Flugplatz Paderborn Lippstadt

Bericht für EDLP

vom 23.02. um 22:20 UTC

Wind 10 kt aus 280° in Böen 21 kt

Sichtweite 10 km oder mehr

gering bewölkt in 2500 ft

Temperatur 4.0°C

Taupunkt 1.0°C

Luftfeuchtigkeit 81%

Luftdruck 1020 hPa

EDLP 232220Z 28010G21KT 240V340 9999 FEW025 04/01 Q1020

Prognose für EDLP

vom 23.02. um 00:00 UTC

Am 23.02. zwischen 00:00 UTC und 00:00 UTC

Wind 20 kt aus 280° in Böen 40 kt

Sichtweite 10 km oder mehr

aufgebrochene Bewölkung in 2000 ft


Am 23.02. zwischen 00:00 und 00:00 UTC übergehend zu

Wind 15 kt aus 290° in Böen 25 kt

Sichtweite 10 km oder mehr

aufgebrochene Bewölkung in 2000 ft


Am 23.02. zwischen 00:00 und 00:00 UTC übergehend zu

Wind 10 kt aus 270°

Sichtweite 10 km oder mehr

aufgebrochene Bewölkung in 2000 ft


Zwischen 00:00 und 00:00 UTC übergehend zu

Wind 8 kt aus 200°

Sichtweite 10 km oder mehr

aufgebrochene Bewölkung in 2000 ft


Zwischen 00:00 und 00:00 UTC übergehend zu

Wind 15 kt aus 220° in Böen 25 kt

Sichtweite 10 km oder mehr

aufgebrochene Bewölkung in 2000 ft


Zwischen 00:00 UTC und 00:00 UTC zeitweise mit einer Wahrscheinlichkeit von 30%

Wind 20 kt aus 230° in Böen 30 kt

aufgebrochene Bewölkung in 1100 ft

TAF EDLP 231700Z 2318/2418 28020G40KT 9999 BKN020 BECMG 2318/2320 29015G25KT BECMG 2320/2323 27010KT BECMG 2404/2407 20008KT BECMG 2412/2415 22015G25KT PROB30 TEMPO 2415/2418 23020G30KT BKN011
Impressum